< < Back
Terminal Aerodrome Forecast


Current Version              Previous Versions:   1  2  3  4  5  6  7  8  9  

Terminal Aerodrome Forecast

900
FTUS42 KFFC 260939 AAA
TAFMCN
TAF AMD
KMCN 260939Z 2610/2706 26008KT P6SM SCT025 BKN080
      TEMPO 2610/2612 BKN025
     FM261200 28010KT P6SM BKN025
     FM261600 30012G20KT P6SM BKN040
     FM261900 30014G24KT P6SM SCT050
     FM270000 31010KT P6SM FEW100 SCT250=

Latest METAR

596
SAUS80 KWBC 261600 RRA
MTRMCN
METAR KMCN 261553Z 29013G21KT 10SM BKN028 OVC036 08/04 A2986 RMK AO2
SLP111 T00830039


USA.gov is the U.S. government's official web portal to all federal, state and local government web resources and services.